sensor_id;sensor_type;location;lat;lon;timestamp;P1;durP1;ratioP1;P2;durP2;ratioP2
68250;SDS011;55066;51.560;4.642;2022-10-16T00:01:30;7.97;;;3.27;;
68250;SDS011;55066;51.560;4.642;2022-10-16T00:03:56;7.50;;;3.35;;
68250;SDS011;55066;51.560;4.642;2022-10-16T00:06:23;8.73;;;3.75;;
68250;SDS011;55066;51.560;4.642;2022-10-16T00:08:49;6.10;;;3.15;;
68250;SDS011;55066;51.560;4.642;2022-10-16T00:11:16;10.10;;;3.33;;
68250;SDS011;55066;51.560;4.642;2022-10-16T00:13:43;10.13;;;3.28;;
68250;SDS011;55066;51.560;4.642;2022-10-16T00:16:10;8.65;;;3.42;;
68250;SDS011;55066;51.560;4.642;2022-10-16T00:18:35;7.68;;;3.40;;
68250;SDS011;55066;51.560;4.642;2022-10-16T00:23:59;7.88;;;3.25;;
68250;SDS011;55066;51.560;4.642;2022-10-16T00:26:27;5.70;;;2.83;;
68250;SDS011;55066;51.560;4.642;2022-10-16T00:28:55;7.85;;;3.00;;
68250;SDS011;55066;51.560;4.642;2022-10-16T00:31:21;8.15;;;2.90;;
68250;SDS011;55066;51.560;4.642;2022-10-16T00:33:47;6.30;;;2.70;;
68250;SDS011;55066;51.560;4.642;2022-10-16T00:36:14;5.82;;;3.08;;
68250;SDS011;55066;51.560;4.642;2022-10-16T00:38:41;9.10;;;2.80;;
68250;SDS011;55066;51.560;4.642;2022-10-16T00:41:07;8.50;;;2.80;;
68250;SDS011;55066;51.560;4.642;2022-10-16T00:46:31;7.00;;;2.95;;
68250;SDS011;55066;51.560;4.642;2022-10-16T00:49:05;6.53;;;2.63;;
68250;SDS011;55066;51.560;4.642;2022-10-16T00:51:45;4.80;;;2.75;;
68250;SDS011;55066;51.560;4.642;2022-10-16T00:54:16;7.85;;;2.75;;
68250;SDS011;55066;51.560;4.642;2022-10-16T00:56:49;5.95;;;2.67;;
68250;SDS011;55066;51.560;4.642;2022-10-16T00:59:17;6.20;;;2.63;;
68250;SDS011;55066;51.560;4.642;2022-10-16T01:01:51;6.25;;;2.30;;
68250;SDS011;55066;51.560;4.642;2022-10-16T01:04:18;12.98;;;2.70;;
68250;SDS011;55066;51.560;4.642;2022-10-16T01:06:59;6.70;;;2.72;;
68250;SDS011;55066;51.560;4.642;2022-10-16T01:12:51;7.28;;;2.50;;
68250;SDS011;55066;51.560;4.642;2022-10-16T01:15:32;8.05;;;2.65;;
68250;SDS011;55066;51.560;4.642;2022-10-16T01:18:22;6.47;;;2.40;;
68250;SDS011;55066;51.560;4.642;2022-10-16T01:21:00;5.05;;;2.40;;
68250;SDS011;55066;51.560;4.642;2022-10-16T01:23:34;5.88;;;2.40;;
68250;SDS011;55066;51.560;4.642;2022-10-16T01:28:56;6.88;;;2.38;;
68250;SDS011;55066;51.560;4.642;2022-10-16T01:31:27;4.50;;;2.17;;
68250;SDS011;55066;51.560;4.642;2022-10-16T01:33:57;6.38;;;2.05;;
68250;SDS011;55066;51.560;4.642;2022-10-16T01:37:14;4.75;;;2.20;;
68250;SDS011;55066;51.560;4.642;2022-10-16T01:39:18;4.47;;;1.70;;
68250;SDS011;55066;51.560;4.642;2022-10-16T01:41:48;5.30;;;2.20;;
68250;SDS011;55066;51.560;4.642;2022-10-16T01:44:17;6.65;;;2.20;;
68250;SDS011;55066;51.560;4.642;2022-10-16T01:46:47;5.68;;;2.13;;
68250;SDS011;55066;51.560;4.642;2022-10-16T01:49:15;5.43;;;2.00;;
68250;SDS011;55066;51.560;4.642;2022-10-16T01:51:43;3.85;;;1.85;;
68250;SDS011;55066;51.560;4.642;2022-10-16T01:54:12;4.85;;;2.00;;
68250;SDS011;55066;51.560;4.642;2022-10-16T01:56:40;7.18;;;2.00;;
68250;SDS011;55066;51.560;4.642;2022-10-16T01:59:07;5.35;;;1.90;;
68250;SDS011;55066;51.560;4.642;2022-10-16T02:01:37;4.85;;;2.00;;
68250;SDS011;55066;51.560;4.642;2022-10-16T02:04:13;4.88;;;1.70;;
68250;SDS011;55066;51.560;4.642;2022-10-16T02:06:45;3.53;;;1.48;;
68250;SDS011;55066;51.560;4.642;2022-10-16T02:09:10;3.80;;;1.67;;
68250;SDS011;55066;51.560;4.642;2022-10-16T02:11:36;3.97;;;1.77;;
68250;SDS011;55066;51.560;4.642;2022-10-16T02:14:02;5.50;;;1.80;;
68250;SDS011;55066;51.560;4.642;2022-10-16T02:16:40;4.25;;;1.83;;
68250;SDS011;55066;51.560;4.642;2022-10-16T02:19:11;4.43;;;1.40;;
68250;SDS011;55066;51.560;4.642;2022-10-16T02:21:49;5.37;;;1.83;;
68250;SDS011;55066;51.560;4.642;2022-10-16T02:24:21;4.18;;;1.50;;
68250;SDS011;55066;51.560;4.642;2022-10-16T02:27:15;5.57;;;1.60;;
68250;SDS011;55066;51.560;4.642;2022-10-16T02:29:56;4.65;;;1.60;;
68250;SDS011;55066;51.560;4.642;2022-10-16T02:32:49;6.82;;;1.60;;
68250;SDS011;55066;51.560;4.642;2022-10-16T02:35:17;5.37;;;1.60;;
68250;SDS011;55066;51.560;4.642;2022-10-16T02:37:45;5.53;;;1.58;;
68250;SDS011;55066;51.560;4.642;2022-10-16T02:40:12;11.05;;;1.60;;
68250;SDS011;55066;51.560;4.642;2022-10-16T02:42:38;4.57;;;1.40;;
68250;SDS011;55066;51.560;4.642;2022-10-16T02:45:05;5.10;;;1.50;;
68250;SDS011;55066;51.560;4.642;2022-10-16T02:47:32;4.20;;;1.40;;
68250;SDS011;55066;51.560;4.642;2022-10-16T02:49:57;5.35;;;1.42;;
68250;SDS011;55066;51.560;4.642;2022-10-16T02:52:23;3.00;;;1.30;;
68250;SDS011;55066;51.560;4.642;2022-10-16T02:54:48;3.33;;;1.30;;
68250;SDS011;55066;51.560;4.642;2022-10-16T02:57:14;4.63;;;1.93;;
68250;SDS011;55066;51.560;4.642;2022-10-16T02:59:39;5.22;;;1.30;;
68250;SDS011;55066;51.560;4.642;2022-10-16T03:02:05;3.85;;;2.25;;
68250;SDS011;55066;51.560;4.642;2022-10-16T03:04:30;6.63;;;1.30;;
68250;SDS011;55066;51.560;4.642;2022-10-16T03:06:55;3.27;;;1.30;;
68250;SDS011;55066;51.560;4.642;2022-10-16T03:09:21;4.30;;;1.73;;
68250;SDS011;55066;51.560;4.642;2022-10-16T03:11:46;8.07;;;1.50;;
68250;SDS011;55066;51.560;4.642;2022-10-16T03:14:12;4.18;;;1.63;;
68250;SDS011;55066;51.560;4.642;2022-10-16T03:16:37;3.47;;;1.60;;
68250;SDS011;55066;51.560;4.642;2022-10-16T03:19:02;3.30;;;1.70;;
68250;SDS011;55066;51.560;4.642;2022-10-16T03:21:28;5.77;;;1.80;;
68250;SDS011;55066;51.560;4.642;2022-10-16T03:23:53;3.90;;;1.67;;
68250;SDS011;55066;51.560;4.642;2022-10-16T03:26:19;4.97;;;2.05;;
68250;SDS011;55066;51.560;4.642;2022-10-16T03:28:44;3.17;;;1.63;;
68250;SDS011;55066;51.560;4.642;2022-10-16T03:31:09;3.30;;;1.50;;
68250;SDS011;55066;51.560;4.642;2022-10-16T03:33:35;4.50;;;1.90;;
68250;SDS011;55066;51.560;4.642;2022-10-16T03:36:00;3.57;;;1.50;;
68250;SDS011;55066;51.560;4.642;2022-10-16T03:38:25;4.60;;;1.80;;
68250;SDS011;55066;51.560;4.642;2022-10-16T03:40:51;5.53;;;1.63;;
68250;SDS011;55066;51.560;4.642;2022-10-16T03:43:16;5.43;;;1.60;;
68250;SDS011;55066;51.560;4.642;2022-10-16T03:45:41;5.72;;;1.60;;
68250;SDS011;55066;51.560;4.642;2022-10-16T03:48:07;3.83;;;1.73;;
68250;SDS011;55066;51.560;4.642;2022-10-16T03:50:32;4.07;;;1.73;;
68250;SDS011;55066;51.560;4.642;2022-10-16T03:52:58;3.97;;;1.83;;
68250;SDS011;55066;51.560;4.642;2022-10-16T03:55:23;5.37;;;1.73;;
68250;SDS011;55066;51.560;4.642;2022-10-16T03:57:49;4.95;;;1.90;;
68250;SDS011;55066;51.560;4.642;2022-10-16T04:00:14;4.00;;;1.65;;
68250;SDS011;55066;51.560;4.642;2022-10-16T04:02:39;4.27;;;1.63;;
68250;SDS011;55066;51.560;4.642;2022-10-16T04:05:05;6.80;;;1.88;;
68250;SDS011;55066;51.560;4.642;2022-10-16T04:07:32;5.17;;;1.90;;
68250;SDS011;55066;51.560;4.642;2022-10-16T04:09:57;7.50;;;1.80;;
68250;SDS011;55066;51.560;4.642;2022-10-16T04:12:24;5.80;;;1.90;;
68250;SDS011;55066;51.560;4.642;2022-10-16T04:14:49;6.15;;;1.60;;
68250;SDS011;55066;51.560;4.642;2022-10-16T04:17:15;5.17;;;1.93;;
68250;SDS011;55066;51.560;4.642;2022-10-16T04:19:40;6.18;;;2.10;;
68250;SDS011;55066;51.560;4.642;2022-10-16T04:22:06;5.13;;;2.00;;
68250;SDS011;55066;51.560;4.642;2022-10-16T04:24:31;4.03;;;1.90;;
68250;SDS011;55066;51.560;4.642;2022-10-16T04:26:56;6.13;;;1.80;;
68250;SDS011;55066;51.560;4.642;2022-10-16T04:29:22;3.87;;;1.70;;
68250;SDS011;55066;51.560;4.642;2022-10-16T04:31:47;8.73;;;2.13;;
68250;SDS011;55066;51.560;4.642;2022-10-16T04:34:12;4.60;;;2.00;;
68250;SDS011;55066;51.560;4.642;2022-10-16T04:36:38;4.97;;;1.92;;
68250;SDS011;55066;51.560;4.642;2022-10-16T04:39:03;6.93;;;1.83;;
68250;SDS011;55066;51.560;4.642;2022-10-16T04:41:29;4.90;;;1.80;;
68250;SDS011;55066;51.560;4.642;2022-10-16T04:43:54;4.67;;;2.00;;
68250;SDS011;55066;51.560;4.642;2022-10-16T04:46:19;4.27;;;1.80;;
68250;SDS011;55066;51.560;4.642;2022-10-16T04:48:45;3.73;;;1.77;;
68250;SDS011;55066;51.560;4.642;2022-10-16T04:51:11;6.72;;;2.03;;
68250;SDS011;55066;51.560;4.642;2022-10-16T04:53:37;4.73;;;2.03;;
68250;SDS011;55066;51.560;4.642;2022-10-16T04:56:02;6.53;;;2.10;;
68250;SDS011;55066;51.560;4.642;2022-10-16T04:58:28;6.03;;;1.98;;
68250;SDS011;55066;51.560;4.642;2022-10-16T05:00:53;5.30;;;2.10;;
68250;SDS011;55066;51.560;4.642;2022-10-16T05:03:18;8.40;;;2.20;;
68250;SDS011;55066;51.560;4.642;2022-10-16T05:05:44;6.47;;;2.27;;
68250;SDS011;55066;51.560;4.642;2022-10-16T05:08:11;5.43;;;2.20;;
68250;SDS011;55066;51.560;4.642;2022-10-16T05:10:38;4.40;;;2.15;;
68250;SDS011;55066;51.560;4.642;2022-10-16T05:13:04;5.83;;;2.20;;
68250;SDS011;55066;51.560;4.642;2022-10-16T05:15:29;6.30;;;2.45;;
68250;SDS011;55066;51.560;4.642;2022-10-16T05:17:55;5.63;;;2.03;;
68250;SDS011;55066;51.560;4.642;2022-10-16T05:20:21;7.83;;;2.23;;
68250;SDS011;55066;51.560;4.642;2022-10-16T05:22:48;5.95;;;2.58;;
68250;SDS011;55066;51.560;4.642;2022-10-16T05:25:14;5.35;;;2.33;;
68250;SDS011;55066;51.560;4.642;2022-10-16T05:27:39;6.53;;;2.70;;
68250;SDS011;55066;51.560;4.642;2022-10-16T05:30:04;5.57;;;2.40;;
68250;SDS011;55066;51.560;4.642;2022-10-16T05:32:30;6.10;;;2.50;;
68250;SDS011;55066;51.560;4.642;2022-10-16T05:34:56;6.57;;;2.70;;
68250;SDS011;55066;51.560;4.642;2022-10-16T05:37:21;6.87;;;2.20;;
68250;SDS011;55066;51.560;4.642;2022-10-16T05:39:46;5.57;;;2.33;;
68250;SDS011;55066;51.560;4.642;2022-10-16T05:42:12;6.57;;;2.30;;
68250;SDS011;55066;51.560;4.642;2022-10-16T05:50:01;7.63;;;2.30;;
68250;SDS011;55066;51.560;4.642;2022-10-16T05:52:35;5.90;;;2.30;;
68250;SDS011;55066;51.560;4.642;2022-10-16T05:55:01;5.93;;;2.27;;
68250;SDS011;55066;51.560;4.642;2022-10-16T05:57:26;7.93;;;2.47;;
68250;SDS011;55066;51.560;4.642;2022-10-16T05:59:52;7.90;;;2.80;;
68250;SDS011;55066;51.560;4.642;2022-10-16T06:02:17;4.60;;;2.20;;
68250;SDS011;55066;51.560;4.642;2022-10-16T06:04:43;6.60;;;2.50;;
68250;SDS011;55066;51.560;4.642;2022-10-16T06:07:08;5.03;;;2.30;;
68250;SDS011;55066;51.560;4.642;2022-10-16T06:09:34;5.55;;;2.08;;
68250;SDS011;55066;51.560;4.642;2022-10-16T06:11:59;5.47;;;2.33;;
68250;SDS011;55066;51.560;4.642;2022-10-16T06:14:24;10.83;;;2.40;;
68250;SDS011;55066;51.560;4.642;2022-10-16T06:16:50;8.13;;;2.00;;
68250;SDS011;55066;51.560;4.642;2022-10-16T06:19:15;3.90;;;2.07;;
68250;SDS011;55066;51.560;4.642;2022-10-16T06:21:41;6.63;;;2.05;;
68250;SDS011;55066;51.560;4.642;2022-10-16T06:24:06;5.50;;;2.20;;
68250;SDS011;55066;51.560;4.642;2022-10-16T06:26:33;5.97;;;2.08;;
68250;SDS011;55066;51.560;4.642;2022-10-16T06:28:58;8.27;;;2.17;;
68250;SDS011;55066;51.560;4.642;2022-10-16T06:31:25;5.18;;;2.03;;
68250;SDS011;55066;51.560;4.642;2022-10-16T06:33:54;8.32;;;2.10;;
68250;SDS011;55066;51.560;4.642;2022-10-16T06:36:19;5.90;;;2.03;;
68250;SDS011;55066;51.560;4.642;2022-10-16T06:38:45;9.80;;;2.40;;
68250;SDS011;55066;51.560;4.642;2022-10-16T06:41:12;5.85;;;2.35;;
68250;SDS011;55066;51.560;4.642;2022-10-16T06:43:39;5.00;;;2.10;;
68250;SDS011;55066;51.560;4.642;2022-10-16T06:46:05;10.75;;;2.53;;
68250;SDS011;55066;51.560;4.642;2022-10-16T06:48:35;4.07;;;2.17;;
68250;SDS011;55066;51.560;4.642;2022-10-16T06:53:28;6.30;;;2.30;;
68250;SDS011;55066;51.560;4.642;2022-10-16T06:55:55;7.30;;;2.10;;
68250;SDS011;55066;51.560;4.642;2022-10-16T06:58:21;7.35;;;2.10;;
68250;SDS011;55066;51.560;4.642;2022-10-16T07:00:46;5.27;;;2.10;;
68250;SDS011;55066;51.560;4.642;2022-10-16T07:03:12;9.17;;;2.20;;
68250;SDS011;55066;51.560;4.642;2022-10-16T07:05:41;6.78;;;1.90;;
68250;SDS011;55066;51.560;4.642;2022-10-16T07:08:07;4.57;;;1.77;;
68250;SDS011;55066;51.560;4.642;2022-10-16T07:10:33;11.57;;;3.03;;
68250;SDS011;55066;51.560;4.642;2022-10-16T07:12:59;5.07;;;1.70;;
68250;SDS011;55066;51.560;4.642;2022-10-16T07:15:24;4.87;;;1.70;;
68250;SDS011;55066;51.560;4.642;2022-10-16T07:17:50;6.78;;;2.10;;
68250;SDS011;55066;51.560;4.642;2022-10-16T07:20:16;3.70;;;1.53;;
68250;SDS011;55066;51.560;4.642;2022-10-16T07:22:41;6.38;;;1.83;;
68250;SDS011;55066;51.560;4.642;2022-10-16T07:25:07;6.88;;;1.75;;
68250;SDS011;55066;51.560;4.642;2022-10-16T07:27:32;4.60;;;1.70;;
68250;SDS011;55066;51.560;4.642;2022-10-16T07:30:01;5.18;;;1.70;;
68250;SDS011;55066;51.560;4.642;2022-10-16T07:32:26;8.63;;;2.27;;
68250;SDS011;55066;51.560;4.642;2022-10-16T07:34:52;8.05;;;2.20;;
68250;SDS011;55066;51.560;4.642;2022-10-16T07:37:18;7.47;;;2.20;;
68250;SDS011;55066;51.560;4.642;2022-10-16T07:39:43;6.13;;;2.15;;
68250;SDS011;55066;51.560;4.642;2022-10-16T07:42:09;5.80;;;2.40;;
68250;SDS011;55066;51.560;4.642;2022-10-16T07:44:34;5.97;;;2.00;;
68250;SDS011;55066;51.560;4.642;2022-10-16T07:47:00;7.97;;;2.40;;
68250;SDS011;55066;51.560;4.642;2022-10-16T07:49:25;7.07;;;2.28;;
68250;SDS011;55066;51.560;4.642;2022-10-16T07:51:50;7.00;;;1.80;;
68250;SDS011;55066;51.560;4.642;2022-10-16T07:54:16;5.47;;;2.20;;
68250;SDS011;55066;51.560;4.642;2022-10-16T07:56:41;6.13;;;2.20;;
68250;SDS011;55066;51.560;4.642;2022-10-16T07:59:06;8.67;;;2.20;;
68250;SDS011;55066;51.560;4.642;2022-10-16T08:01:32;6.03;;;2.30;;
68250;SDS011;55066;51.560;4.642;2022-10-16T08:03:57;5.47;;;2.17;;
68250;SDS011;55066;51.560;4.642;2022-10-16T08:06:23;16.55;;;3.38;;
68250;SDS011;55066;51.560;4.642;2022-10-16T08:08:48;9.17;;;2.07;;
68250;SDS011;55066;51.560;4.642;2022-10-16T08:11:14;7.00;;;2.28;;
68250;SDS011;55066;51.560;4.642;2022-10-16T08:13:40;7.32;;;2.30;;
68250;SDS011;55066;51.560;4.642;2022-10-16T08:16:06;8.38;;;2.30;;
68250;SDS011;55066;51.560;4.642;2022-10-16T08:18:33;6.93;;;2.05;;
68250;SDS011;55066;51.560;4.642;2022-10-16T08:21:00;7.68;;;1.90;;
68250;SDS011;55066;51.560;4.642;2022-10-16T08:23:25;4.60;;;2.17;;
68250;SDS011;55066;51.560;4.642;2022-10-16T08:25:52;9.45;;;2.35;;
68250;SDS011;55066;51.560;4.642;2022-10-16T08:28:18;11.63;;;2.60;;
68250;SDS011;55066;51.560;4.642;2022-10-16T08:30:44;7.32;;;2.28;;
68250;SDS011;55066;51.560;4.642;2022-10-16T08:33:09;9.83;;;1.93;;
68250;SDS011;55066;51.560;4.642;2022-10-16T08:35:35;8.50;;;1.90;;
68250;SDS011;55066;51.560;4.642;2022-10-16T08:38:02;7.10;;;2.00;;
68250;SDS011;55066;51.560;4.642;2022-10-16T08:40:29;12.23;;;2.13;;
68250;SDS011;55066;51.560;4.642;2022-10-16T08:43:20;5.93;;;1.70;;
68250;SDS011;55066;51.560;4.642;2022-10-16T08:46:05;13.05;;;2.10;;
68250;SDS011;55066;51.560;4.642;2022-10-16T08:48:36;6.70;;;1.85;;
68250;SDS011;55066;51.560;4.642;2022-10-16T08:51:06;7.17;;;1.70;;
68250;SDS011;55066;51.560;4.642;2022-10-16T08:53:43;6.53;;;2.15;;
68250;SDS011;55066;51.560;4.642;2022-10-16T08:56:12;6.97;;;1.70;;
68250;SDS011;55066;51.560;4.642;2022-10-16T08:58:37;8.67;;;1.60;;
68250;SDS011;55066;51.560;4.642;2022-10-16T09:01:03;8.70;;;1.60;;
68250;SDS011;55066;51.560;4.642;2022-10-16T09:19:56;6.85;;;1.50;;
68250;SDS011;55066;51.560;4.642;2022-10-16T09:22:33;8.05;;;1.60;;
68250;SDS011;55066;51.560;4.642;2022-10-16T09:24:59;12.77;;;1.97;;
68250;SDS011;55066;51.560;4.642;2022-10-16T09:27:30;8.20;;;1.70;;
68250;SDS011;55066;51.560;4.642;2022-10-16T09:29:56;9.43;;;1.80;;
68250;SDS011;55066;51.560;4.642;2022-10-16T09:32:21;11.60;;;1.50;;
68250;SDS011;55066;51.560;4.642;2022-10-16T09:34:48;7.93;;;1.38;;
68250;SDS011;55066;51.560;4.642;2022-10-16T09:37:18;6.82;;;1.50;;
68250;SDS011;55066;51.560;4.642;2022-10-16T09:39:48;9.88;;;1.98;;
68250;SDS011;55066;51.560;4.642;2022-10-16T09:42:18;7.83;;;1.60;;
68250;SDS011;55066;51.560;4.642;2022-10-16T09:44:47;12.02;;;1.85;;
68250;SDS011;55066;51.560;4.642;2022-10-16T09:47:18;8.20;;;1.67;;
68250;SDS011;55066;51.560;4.642;2022-10-16T09:49:56;11.43;;;1.50;;
68250;SDS011;55066;51.560;4.642;2022-10-16T09:52:23;15.05;;;2.10;;
68250;SDS011;55066;51.560;4.642;2022-10-16T09:54:52;9.63;;;1.57;;
68250;SDS011;55066;51.560;4.642;2022-10-16T09:57:20;10.68;;;1.60;;
68250;SDS011;55066;51.560;4.642;2022-10-16T09:59:50;12.43;;;1.77;;
68250;SDS011;55066;51.560;4.642;2022-10-16T10:02:17;9.15;;;1.88;;
68250;SDS011;55066;51.560;4.642;2022-10-16T10:04:52;5.68;;;1.73;;
68250;SDS011;55066;51.560;4.642;2022-10-16T10:09:58;10.95;;;1.63;;
68250;SDS011;55066;51.560;4.642;2022-10-16T10:12:27;10.23;;;1.50;;
68250;SDS011;55066;51.560;4.642;2022-10-16T10:14:56;9.30;;;1.70;;
68250;SDS011;55066;51.560;4.642;2022-10-16T10:17:23;15.13;;;1.77;;
68250;SDS011;55066;51.560;4.642;2022-10-16T10:19:57;11.10;;;1.42;;
68250;SDS011;55066;51.560;4.642;2022-10-16T10:22:43;9.63;;;1.60;;
68250;SDS011;55066;51.560;4.642;2022-10-16T10:35:42;7.82;;;1.60;;
68250;SDS011;55066;51.560;4.642;2022-10-16T10:38:30;17.88;;;1.63;;
68250;SDS011;55066;51.560;4.642;2022-10-16T10:41:10;9.40;;;1.55;;
68250;SDS011;55066;51.560;4.642;2022-10-16T10:43:59;10.88;;;1.70;;
68250;SDS011;55066;51.560;4.642;2022-10-16T10:46:31;8.40;;;1.50;;
68250;SDS011;55066;51.560;4.642;2022-10-16T10:49:03;13.98;;;1.85;;
68250;SDS011;55066;51.560;4.642;2022-10-16T10:52:02;12.43;;;1.55;;
68250;SDS011;55066;51.560;4.642;2022-10-16T10:54:38;12.50;;;1.38;;
68250;SDS011;55066;51.560;4.642;2022-10-16T10:57:21;7.57;;;1.30;;
68250;SDS011;55066;51.560;4.642;2022-10-16T10:59:55;7.63;;;1.17;;
68250;SDS011;55066;51.560;4.642;2022-10-16T11:05:41;9.70;;;1.50;;
68250;SDS011;55066;51.560;4.642;2022-10-16T11:08:29;6.82;;;1.30;;
68250;SDS011;55066;51.560;4.642;2022-10-16T11:11:01;10.77;;;1.50;;
68250;SDS011;55066;51.560;4.642;2022-10-16T11:13:43;11.37;;;1.83;;
68250;SDS011;55066;51.560;4.642;2022-10-16T11:16:37;10.20;;;1.42;;
68250;SDS011;55066;51.560;4.642;2022-10-16T11:19:21;8.68;;;1.33;;
68250;SDS011;55066;51.560;4.642;2022-10-16T11:22:01;9.80;;;1.50;;
68250;SDS011;55066;51.560;4.642;2022-10-16T11:27:25;9.93;;;1.43;;
68250;SDS011;55066;51.560;4.642;2022-10-16T11:30:12;10.13;;;1.40;;
68250;SDS011;55066;51.560;4.642;2022-10-16T11:38:21;19.58;;;1.42;;
68250;SDS011;55066;51.560;4.642;2022-10-16T11:41:03;10.40;;;1.37;;
68250;SDS011;55066;51.560;4.642;2022-10-16T11:43:53;11.73;;;1.90;;
68250;SDS011;55066;51.560;4.642;2022-10-16T11:46:22;9.07;;;1.30;;
68250;SDS011;55066;51.560;4.642;2022-10-16T11:49:00;11.45;;;1.38;;
68250;SDS011;55066;51.560;4.642;2022-10-16T11:51:35;7.47;;;1.40;;
68250;SDS011;55066;51.560;4.642;2022-10-16T11:57:11;11.18;;;1.50;;
68250;SDS011;55066;51.560;4.642;2022-10-16T11:59:43;11.50;;;1.52;;
68250;SDS011;55066;51.560;4.642;2022-10-16T12:02:23;10.65;;;1.20;;
68250;SDS011;55066;51.560;4.642;2022-10-16T12:07:36;7.20;;;1.27;;
68250;SDS011;55066;51.560;4.642;2022-10-16T12:54:36;12.03;;;1.93;;
68250;SDS011;55066;51.560;4.642;2022-10-16T12:57:24;10.48;;;1.73;;
68250;SDS011;55066;51.560;4.642;2022-10-16T13:05:31;12.43;;;2.10;;
68250;SDS011;55066;51.560;4.642;2022-10-16T13:20:02;11.52;;;2.20;;
68250;SDS011;55066;51.560;4.642;2022-10-16T13:22:44;11.30;;;2.27;;
68250;SDS011;55066;51.560;4.642;2022-10-16T13:25:26;14.05;;;2.22;;
68250;SDS011;55066;51.560;4.642;2022-10-16T13:28:13;7.80;;;1.88;;
68250;SDS011;55066;51.560;4.642;2022-10-16T13:30:41;7.38;;;1.85;;
68250;SDS011;55066;51.560;4.642;2022-10-16T13:35:49;6.13;;;1.93;;
68250;SDS011;55066;51.560;4.642;2022-10-16T13:38:20;11.07;;;2.20;;
68250;SDS011;55066;51.560;4.642;2022-10-16T13:40:57;7.88;;;1.67;;
68250;SDS011;55066;51.560;4.642;2022-10-16T13:43:29;9.70;;;2.00;;
68250;SDS011;55066;51.560;4.642;2022-10-16T13:46:04;9.73;;;1.90;;
68250;SDS011;55066;51.560;4.642;2022-10-16T13:48:31;12.53;;;2.10;;
68250;SDS011;55066;51.560;4.642;2022-10-16T13:51:02;8.02;;;1.77;;
68250;SDS011;55066;51.560;4.642;2022-10-16T13:53:36;9.23;;;2.15;;
68250;SDS011;55066;51.560;4.642;2022-10-16T13:56:03;8.73;;;1.70;;
68250;SDS011;55066;51.560;4.642;2022-10-16T13:58:30;11.07;;;2.05;;
68250;SDS011;55066;51.560;4.642;2022-10-16T14:00:57;9.35;;;2.08;;
68250;SDS011;55066;51.560;4.642;2022-10-16T14:03:41;11.25;;;1.92;;
68250;SDS011;55066;51.560;4.642;2022-10-16T14:06:11;6.83;;;1.80;;
68250;SDS011;55066;51.560;4.642;2022-10-16T14:08:40;5.97;;;1.80;;
68250;SDS011;55066;51.560;4.642;2022-10-16T14:11:08;7.63;;;2.10;;
68250;SDS011;55066;51.560;4.642;2022-10-16T14:13:34;6.67;;;1.90;;
68250;SDS011;55066;51.560;4.642;2022-10-16T14:16:07;6.93;;;1.70;;
68250;SDS011;55066;51.560;4.642;2022-10-16T14:18:41;5.20;;;1.60;;
68250;SDS011;55066;51.560;4.642;2022-10-16T14:21:12;6.67;;;2.03;;
68250;SDS011;55066;51.560;4.642;2022-10-16T14:23:40;4.25;;;1.58;;
68250;SDS011;55066;51.560;4.642;2022-10-16T14:26:12;7.43;;;1.77;;
68250;SDS011;55066;51.560;4.642;2022-10-16T14:28:39;6.90;;;1.88;;
68250;SDS011;55066;51.560;4.642;2022-10-16T14:31:53;6.88;;;1.70;;
68250;SDS011;55066;51.560;4.642;2022-10-16T14:33:56;7.43;;;1.93;;
68250;SDS011;55066;51.560;4.642;2022-10-16T14:36:22;8.77;;;2.08;;
68250;SDS011;55066;51.560;4.642;2022-10-16T14:38:51;7.70;;;1.83;;
68250;SDS011;55066;51.560;4.642;2022-10-16T14:41:30;7.15;;;1.73;;
68250;SDS011;55066;51.560;4.642;2022-10-16T14:44:01;6.38;;;1.88;;
68250;SDS011;55066;51.560;4.642;2022-10-16T14:46:34;8.37;;;2.40;;
68250;SDS011;55066;51.560;4.642;2022-10-16T14:49:12;5.93;;;2.10;;
68250;SDS011;55066;51.560;4.642;2022-10-16T14:51:42;10.10;;;2.13;;
68250;SDS011;55066;51.560;4.642;2022-10-16T14:54:09;13.30;;;4.00;;
68250;SDS011;55066;51.560;4.642;2022-10-16T14:59:25;10.30;;;2.33;;
68250;SDS011;55066;51.560;4.642;2022-10-16T15:01:58;8.18;;;3.30;;
68250;SDS011;55066;51.560;4.642;2022-10-16T15:04:24;8.00;;;2.10;;
68250;SDS011;55066;51.560;4.642;2022-10-16T15:06:49;8.05;;;2.10;;
68250;SDS011;55066;51.560;4.642;2022-10-16T15:09:17;7.07;;;2.42;;
68250;SDS011;55066;51.560;4.642;2022-10-16T15:11:43;6.50;;;1.77;;
68250;SDS011;55066;51.560;4.642;2022-10-16T15:14:11;7.70;;;1.67;;
68250;SDS011;55066;51.560;4.642;2022-10-16T15:16:38;6.73;;;1.63;;
68250;SDS011;55066;51.560;4.642;2022-10-16T15:19:03;7.90;;;2.05;;
68250;SDS011;55066;51.560;4.642;2022-10-16T15:21:31;6.70;;;1.70;;
68250;SDS011;55066;51.560;4.642;2022-10-16T15:23:58;8.15;;;1.67;;
68250;SDS011;55066;51.560;4.642;2022-10-16T15:26:24;7.97;;;1.90;;
68250;SDS011;55066;51.560;4.642;2022-10-16T15:28:53;5.07;;;2.03;;
68250;SDS011;55066;51.560;4.642;2022-10-16T15:31:19;5.35;;;1.88;;
68250;SDS011;55066;51.560;4.642;2022-10-16T15:33:46;5.60;;;1.90;;
68250;SDS011;55066;51.560;4.642;2022-10-16T15:36:23;8.13;;;1.98;;
68250;SDS011;55066;51.560;4.642;2022-10-16T15:38:50;5.45;;;2.08;;
68250;SDS011;55066;51.560;4.642;2022-10-16T15:41:20;5.38;;;2.13;;
68250;SDS011;55066;51.560;4.642;2022-10-16T15:43:47;7.82;;;2.05;;
68250;SDS011;55066;51.560;4.642;2022-10-16T15:46:21;6.13;;;2.00;;
68250;SDS011;55066;51.560;4.642;2022-10-16T15:48:48;7.25;;;1.98;;
68250;SDS011;55066;51.560;4.642;2022-10-16T15:51:15;26.92;;;9.70;;
68250;SDS011;55066;51.560;4.642;2022-10-16T15:53:41;35.95;;;15.55;;
68250;SDS011;55066;51.560;4.642;2022-10-16T15:56:08;19.42;;;8.00;;
68250;SDS011;55066;51.560;4.642;2022-10-16T15:58:36;13.67;;;4.40;;
68250;SDS011;55066;51.560;4.642;2022-10-16T16:01:02;9.02;;;4.38;;
68250;SDS011;55066;51.560;4.642;2022-10-16T16:03:29;6.40;;;2.65;;
68250;SDS011;55066;51.560;4.642;2022-10-16T16:05:55;7.72;;;2.60;;
68250;SDS011;55066;51.560;4.642;2022-10-16T16:08:21;7.93;;;2.03;;
68250;SDS011;55066;51.560;4.642;2022-10-16T16:11:04;7.80;;;2.20;;
68250;SDS011;55066;51.560;4.642;2022-10-16T16:13:30;3.87;;;1.70;;
68250;SDS011;55066;51.560;4.642;2022-10-16T16:15:56;7.35;;;2.30;;
68250;SDS011;55066;51.560;4.642;2022-10-16T16:18:31;7.13;;;2.72;;
68250;SDS011;55066;51.560;4.642;2022-10-16T16:20:56;6.53;;;3.10;;
68250;SDS011;55066;51.560;4.642;2022-10-16T16:23:22;8.18;;;1.90;;
68250;SDS011;55066;51.560;4.642;2022-10-16T16:26:04;5.37;;;2.00;;
68250;SDS011;55066;51.560;4.642;2022-10-16T16:28:29;8.77;;;1.90;;
68250;SDS011;55066;51.560;4.642;2022-10-16T16:30:55;5.87;;;2.03;;
68250;SDS011;55066;51.560;4.642;2022-10-16T16:33:20;4.20;;;1.87;;
68250;SDS011;55066;51.560;4.642;2022-10-16T16:35:46;6.43;;;2.30;;
68250;SDS011;55066;51.560;4.642;2022-10-16T16:38:12;15.17;;;2.40;;
68250;SDS011;55066;51.560;4.642;2022-10-16T16:40:38;7.30;;;2.28;;
68250;SDS011;55066;51.560;4.642;2022-10-16T16:43:03;5.47;;;2.63;;
68250;SDS011;55066;51.560;4.642;2022-10-16T16:45:29;8.40;;;3.40;;
68250;SDS011;55066;51.560;4.642;2022-10-16T16:47:54;6.00;;;2.30;;
68250;SDS011;55066;51.560;4.642;2022-10-16T16:50:19;11.95;;;3.38;;
68250;SDS011;55066;51.560;4.642;2022-10-16T16:52:45;13.73;;;3.13;;
68250;SDS011;55066;51.560;4.642;2022-10-16T16:55:10;7.67;;;3.40;;
68250;SDS011;55066;51.560;4.642;2022-10-16T16:57:35;8.87;;;3.07;;
68250;SDS011;55066;51.560;4.642;2022-10-16T17:00:01;6.87;;;2.90;;
68250;SDS011;55066;51.560;4.642;2022-10-16T17:02:26;10.93;;;3.20;;
68250;SDS011;55066;51.560;4.642;2022-10-16T17:04:52;5.43;;;2.60;;
68250;SDS011;55066;51.560;4.642;2022-10-16T17:07:17;8.77;;;2.80;;
68250;SDS011;55066;51.560;4.642;2022-10-16T17:09:42;8.40;;;2.40;;
68250;SDS011;55066;51.560;4.642;2022-10-16T17:12:08;6.20;;;2.20;;